sensor_id;sensor_type;location;lat;lon;timestamp;P1;durP1;ratioP1;P2;durP2;ratioP2
15502;SDS011;7853;52.186;5.948;2022-10-23T00:03:06;15.65;;;10.95;;
15502;SDS011;7853;52.186;5.948;2022-10-23T00:03:06;19.19;;;11.11;;
15502;SDS011;7853;52.186;5.948;2022-10-23T00:03:51;18.50;;;10.82;;
15502;SDS011;7853;52.186;5.948;2022-10-23T00:04:51;14.21;;;9.28;;
15502;SDS011;7853;52.186;5.948;2022-10-23T00:05:41;13.59;;;9.42;;
15502;SDS011;7853;52.186;5.948;2022-10-23T00:06:36;13.98;;;9.39;;
15502;SDS011;7853;52.186;5.948;2022-10-23T00:07:33;14.01;;;9.56;;
15502;SDS011;7853;52.186;5.948;2022-10-23T00:08:32;16.59;;;9.47;;
15502;SDS011;7853;52.186;5.948;2022-10-23T00:09:31;13.73;;;9.24;;
15502;SDS011;7853;52.186;5.948;2022-10-23T00:10:32;14.72;;;9.32;;
15502;SDS011;7853;52.186;5.948;2022-10-23T00:11:32;13.00;;;9.08;;
15502;SDS011;7853;52.186;5.948;2022-10-23T00:12:31;13.36;;;9.01;;
15502;SDS011;7853;52.186;5.948;2022-10-23T00:13:31;13.98;;;8.98;;
15502;SDS011;7853;52.186;5.948;2022-10-23T00:14:31;14.38;;;9.16;;
15502;SDS011;7853;52.186;5.948;2022-10-23T00:15:31;12.74;;;8.92;;
15502;SDS011;7853;52.186;5.948;2022-10-23T00:16:30;11.59;;;8.26;;
15502;SDS011;7853;52.186;5.948;2022-10-23T00:17:30;12.10;;;8.11;;
15502;SDS011;7853;52.186;5.948;2022-10-23T00:18:31;9.93;;;7.62;;
15502;SDS011;7853;52.186;5.948;2022-10-23T00:19:31;12.32;;;8.12;;
15502;SDS011;7853;52.186;5.948;2022-10-23T00:20:31;10.89;;;7.75;;
15502;SDS011;7853;52.186;5.948;2022-10-23T00:21:31;13.51;;;8.54;;
15502;SDS011;7853;52.186;5.948;2022-10-23T00:22:31;10.53;;;7.41;;
15502;SDS011;7853;52.186;5.948;2022-10-23T00:23:31;12.74;;;7.39;;
15502;SDS011;7853;52.186;5.948;2022-10-23T00:24:32;11.18;;;7.21;;
15502;SDS011;7853;52.186;5.948;2022-10-23T00:25:31;9.51;;;6.90;;
15502;SDS011;7853;52.186;5.948;2022-10-23T00:26:31;13.41;;;6.81;;
15502;SDS011;7853;52.186;5.948;2022-10-23T00:27:31;10.72;;;7.15;;
15502;SDS011;7853;52.186;5.948;2022-10-23T00:28:35;10.03;;;7.07;;
15502;SDS011;7853;52.186;5.948;2022-10-23T00:29:30;12.62;;;7.64;;
15502;SDS011;7853;52.186;5.948;2022-10-23T00:30:31;10.12;;;7.61;;
15502;SDS011;7853;52.186;5.948;2022-10-23T00:31:31;10.90;;;7.40;;
15502;SDS011;7853;52.186;5.948;2022-10-23T00:32:31;13.91;;;7.37;;
15502;SDS011;7853;52.186;5.948;2022-10-23T00:33:33;12.02;;;7.46;;
15502;SDS011;7853;52.186;5.948;2022-10-23T00:34:31;11.16;;;7.58;;
15502;SDS011;7853;52.186;5.948;2022-10-23T00:35:31;12.83;;;8.34;;
15502;SDS011;7853;52.186;5.948;2022-10-23T00:36:32;12.09;;;7.93;;
15502;SDS011;7853;52.186;5.948;2022-10-23T00:37:32;12.48;;;7.98;;
15502;SDS011;7853;52.186;5.948;2022-10-23T00:38:32;12.83;;;7.83;;
15502;SDS011;7853;52.186;5.948;2022-10-23T00:39:32;11.42;;;7.38;;
15502;SDS011;7853;52.186;5.948;2022-10-23T00:40:32;11.20;;;7.71;;
15502;SDS011;7853;52.186;5.948;2022-10-23T00:41:32;13.89;;;8.02;;
15502;SDS011;7853;52.186;5.948;2022-10-23T00:42:32;12.45;;;8.32;;
15502;SDS011;7853;52.186;5.948;2022-10-23T00:43:32;12.15;;;7.88;;
15502;SDS011;7853;52.186;5.948;2022-10-23T00:45:38;11.65;;;7.63;;
15502;SDS011;7853;52.186;5.948;2022-10-23T00:46:38;13.52;;;7.40;;
15502;SDS011;7853;52.186;5.948;2022-10-23T00:47:35;11.03;;;7.32;;
15502;SDS011;7853;52.186;5.948;2022-10-23T00:48:33;12.72;;;8.16;;
15502;SDS011;7853;52.186;5.948;2022-10-23T00:49:37;12.77;;;7.94;;
15502;SDS011;7853;52.186;5.948;2022-10-23T00:50:30;11.20;;;7.90;;
15502;SDS011;7853;52.186;5.948;2022-10-23T00:51:35;12.60;;;8.48;;
15502;SDS011;7853;52.186;5.948;2022-10-23T00:52:27;13.06;;;8.85;;
15502;SDS011;7853;52.186;5.948;2022-10-23T00:53:30;11.80;;;8.50;;
15502;SDS011;7853;52.186;5.948;2022-10-23T00:54:33;14.62;;;8.22;;
15502;SDS011;7853;52.186;5.948;2022-10-23T00:55:30;13.62;;;8.01;;
15502;SDS011;7853;52.186;5.948;2022-10-23T00:56:30;11.39;;;7.56;;
15502;SDS011;7853;52.186;5.948;2022-10-23T00:57:30;12.86;;;7.44;;
15502;SDS011;7853;52.186;5.948;2022-10-23T00:58:31;12.32;;;7.68;;
15502;SDS011;7853;52.186;5.948;2022-10-23T01:00:06;10.69;;;8.03;;
15502;SDS011;7853;52.186;5.948;2022-10-23T01:01:13;12.71;;;8.20;;
15502;SDS011;7853;52.186;5.948;2022-10-23T01:02:12;12.32;;;8.35;;
15502;SDS011;7853;52.186;5.948;2022-10-23T01:03:12;11.22;;;8.22;;
15502;SDS011;7853;52.186;5.948;2022-10-23T01:04:22;11.75;;;7.85;;
15502;SDS011;7853;52.186;5.948;2022-10-23T01:05:29;11.67;;;8.02;;
15502;SDS011;7853;52.186;5.948;2022-10-23T01:06:31;10.85;;;7.73;;
15502;SDS011;7853;52.186;5.948;2022-10-23T01:07:31;13.30;;;8.28;;
15502;SDS011;7853;52.186;5.948;2022-10-23T01:08:31;12.92;;;8.25;;
15502;SDS011;7853;52.186;5.948;2022-10-23T01:09:30;11.08;;;7.80;;
15502;SDS011;7853;52.186;5.948;2022-10-23T01:11:38;12.19;;;7.98;;
15502;SDS011;7853;52.186;5.948;2022-10-23T01:12:40;11.45;;;7.75;;
15502;SDS011;7853;52.186;5.948;2022-10-23T01:13:36;12.06;;;7.84;;
15502;SDS011;7853;52.186;5.948;2022-10-23T01:14:32;11.64;;;7.59;;
15502;SDS011;7853;52.186;5.948;2022-10-23T01:15:39;13.00;;;8.14;;
15502;SDS011;7853;52.186;5.948;2022-10-23T01:16:36;14.67;;;8.79;;
15502;SDS011;7853;52.186;5.948;2022-10-23T01:17:35;11.70;;;7.22;;
15502;SDS011;7853;52.186;5.948;2022-10-23T01:18:34;12.75;;;7.60;;
15502;SDS011;7853;52.186;5.948;2022-10-23T01:20:35;11.25;;;7.26;;
15502;SDS011;7853;52.186;5.948;2022-10-23T01:21:40;11.30;;;7.25;;
15502;SDS011;7853;52.186;5.948;2022-10-23T01:22:50;10.44;;;7.23;;
15502;SDS011;7853;52.186;5.948;2022-10-23T01:23:55;11.84;;;7.00;;
15502;SDS011;7853;52.186;5.948;2022-10-23T01:24:56;9.67;;;7.29;;
15502;SDS011;7853;52.186;5.948;2022-10-23T01:25:57;11.20;;;7.43;;
15502;SDS011;7853;52.186;5.948;2022-10-23T01:26:50;10.32;;;7.15;;
15502;SDS011;7853;52.186;5.948;2022-10-23T01:27:47;13.14;;;7.44;;
15502;SDS011;7853;52.186;5.948;2022-10-23T01:28:35;11.94;;;7.48;;
15502;SDS011;7853;52.186;5.948;2022-10-23T01:29:32;10.61;;;7.36;;
15502;SDS011;7853;52.186;5.948;2022-10-23T01:30:30;11.87;;;7.10;;
15502;SDS011;7853;52.186;5.948;2022-10-23T01:31:32;11.03;;;7.38;;
15502;SDS011;7853;52.186;5.948;2022-10-23T01:32:31;11.46;;;7.32;;
15502;SDS011;7853;52.186;5.948;2022-10-23T01:33:30;11.70;;;7.81;;
15502;SDS011;7853;52.186;5.948;2022-10-23T01:34:29;12.82;;;7.92;;
15502;SDS011;7853;52.186;5.948;2022-10-23T01:35:30;12.96;;;8.44;;
15502;SDS011;7853;52.186;5.948;2022-10-23T01:36:29;12.13;;;8.06;;
15502;SDS011;7853;52.186;5.948;2022-10-23T01:37:31;12.56;;;8.10;;
15502;SDS011;7853;52.186;5.948;2022-10-23T01:38:30;12.24;;;7.91;;
15502;SDS011;7853;52.186;5.948;2022-10-23T01:39:29;10.56;;;7.88;;
15502;SDS011;7853;52.186;5.948;2022-10-23T01:40:29;12.89;;;8.18;;
15502;SDS011;7853;52.186;5.948;2022-10-23T01:41:29;11.98;;;8.33;;
15502;SDS011;7853;52.186;5.948;2022-10-23T01:42:30;10.93;;;8.09;;
15502;SDS011;7853;52.186;5.948;2022-10-23T01:43:30;12.26;;;8.53;;
15502;SDS011;7853;52.186;5.948;2022-10-23T01:44:31;10.55;;;7.54;;
15502;SDS011;7853;52.186;5.948;2022-10-23T01:45:30;10.73;;;7.27;;
15502;SDS011;7853;52.186;5.948;2022-10-23T01:46:29;10.34;;;7.00;;
15502;SDS011;7853;52.186;5.948;2022-10-23T01:47:31;10.77;;;7.39;;
15502;SDS011;7853;52.186;5.948;2022-10-23T01:48:30;9.92;;;7.11;;
15502;SDS011;7853;52.186;5.948;2022-10-23T01:49:30;10.46;;;7.13;;
15502;SDS011;7853;52.186;5.948;2022-10-23T01:50:31;10.34;;;7.17;;
15502;SDS011;7853;52.186;5.948;2022-10-23T01:51:31;10.94;;;7.05;;
15502;SDS011;7853;52.186;5.948;2022-10-23T01:52:31;14.41;;;7.32;;
15502;SDS011;7853;52.186;5.948;2022-10-23T01:53:32;9.77;;;7.43;;
15502;SDS011;7853;52.186;5.948;2022-10-23T01:54:32;11.29;;;7.53;;
15502;SDS011;7853;52.186;5.948;2022-10-23T01:55:31;9.99;;;7.29;;
15502;SDS011;7853;52.186;5.948;2022-10-23T01:56:32;11.24;;;6.98;;
15502;SDS011;7853;52.186;5.948;2022-10-23T01:57:31;10.68;;;7.06;;
15502;SDS011;7853;52.186;5.948;2022-10-23T01:58:31;9.79;;;6.97;;
15502;SDS011;7853;52.186;5.948;2022-10-23T01:59:31;10.98;;;6.85;;
15502;SDS011;7853;52.186;5.948;2022-10-23T02:00:31;8.56;;;6.28;;
15502;SDS011;7853;52.186;5.948;2022-10-23T02:01:31;9.23;;;6.61;;
15502;SDS011;7853;52.186;5.948;2022-10-23T02:02:31;10.45;;;6.74;;
15502;SDS011;7853;52.186;5.948;2022-10-23T02:03:32;9.92;;;6.62;;
15502;SDS011;7853;52.186;5.948;2022-10-23T02:04:33;9.11;;;6.47;;
15502;SDS011;7853;52.186;5.948;2022-10-23T02:06:36;9.24;;;6.33;;
15502;SDS011;7853;52.186;5.948;2022-10-23T02:07:35;10.88;;;6.34;;
15502;SDS011;7853;52.186;5.948;2022-10-23T02:08:33;8.93;;;6.19;;
15502;SDS011;7853;52.186;5.948;2022-10-23T02:09:32;9.68;;;6.82;;
15502;SDS011;7853;52.186;5.948;2022-10-23T02:10:33;9.08;;;6.24;;
15502;SDS011;7853;52.186;5.948;2022-10-23T02:11:41;9.71;;;6.42;;
15502;SDS011;7853;52.186;5.948;2022-10-23T02:12:46;9.50;;;6.49;;
15502;SDS011;7853;52.186;5.948;2022-10-23T02:13:46;10.60;;;6.20;;
15502;SDS011;7853;52.186;5.948;2022-10-23T02:14:39;10.74;;;6.94;;
15502;SDS011;7853;52.186;5.948;2022-10-23T02:15:44;7.86;;;6.11;;
15502;SDS011;7853;52.186;5.948;2022-10-23T02:16:34;9.40;;;6.25;;
15502;SDS011;7853;52.186;5.948;2022-10-23T02:17:32;10.91;;;6.39;;
15502;SDS011;7853;52.186;5.948;2022-10-23T02:18:39;9.43;;;6.23;;
15502;SDS011;7853;52.186;5.948;2022-10-23T02:19:46;9.38;;;6.56;;
15502;SDS011;7853;52.186;5.948;2022-10-23T02:20:43;10.28;;;6.31;;
15502;SDS011;7853;52.186;5.948;2022-10-23T02:21:37;9.17;;;6.36;;
15502;SDS011;7853;52.186;5.948;2022-10-23T02:22:32;8.97;;;6.48;;
15502;SDS011;7853;52.186;5.948;2022-10-23T02:23:30;9.80;;;6.42;;
15502;SDS011;7853;52.186;5.948;2022-10-23T02:24:30;10.10;;;6.39;;
15502;SDS011;7853;52.186;5.948;2022-10-23T02:25:30;12.15;;;7.05;;
15502;SDS011;7853;52.186;5.948;2022-10-23T02:26:30;9.32;;;6.38;;
15502;SDS011;7853;52.186;5.948;2022-10-23T02:27:29;9.50;;;6.65;;
15502;SDS011;7853;52.186;5.948;2022-10-23T02:28:29;8.44;;;6.39;;
15502;SDS011;7853;52.186;5.948;2022-10-23T02:29:27;13.26;;;6.81;;
15502;SDS011;7853;52.186;5.948;2022-10-23T02:30:27;11.08;;;6.37;;
15502;SDS011;7853;52.186;5.948;2022-10-23T02:31:29;10.11;;;6.71;;
15502;SDS011;7853;52.186;5.948;2022-10-23T02:32:30;8.86;;;6.59;;
15502;SDS011;7853;52.186;5.948;2022-10-23T02:33:30;10.08;;;6.64;;
15502;SDS011;7853;52.186;5.948;2022-10-23T02:34:30;9.45;;;6.71;;
15502;SDS011;7853;52.186;5.948;2022-10-23T02:35:30;9.37;;;6.35;;
15502;SDS011;7853;52.186;5.948;2022-10-23T02:36:31;11.18;;;6.78;;
15502;SDS011;7853;52.186;5.948;2022-10-23T02:37:31;10.14;;;6.71;;
15502;SDS011;7853;52.186;5.948;2022-10-23T02:38:33;9.53;;;6.05;;
15502;SDS011;7853;52.186;5.948;2022-10-23T02:39:30;8.97;;;6.06;;
15502;SDS011;7853;52.186;5.948;2022-10-23T02:40:31;9.93;;;6.49;;
15502;SDS011;7853;52.186;5.948;2022-10-23T02:41:32;10.23;;;6.48;;
15502;SDS011;7853;52.186;5.948;2022-10-23T02:42:29;8.38;;;6.33;;
15502;SDS011;7853;52.186;5.948;2022-10-23T02:43:30;9.65;;;5.95;;
15502;SDS011;7853;52.186;5.948;2022-10-23T02:44:31;9.44;;;6.44;;
15502;SDS011;7853;52.186;5.948;2022-10-23T02:45:28;8.82;;;6.18;;
15502;SDS011;7853;52.186;5.948;2022-10-23T02:46:29;10.02;;;6.69;;
15502;SDS011;7853;52.186;5.948;2022-10-23T02:47:31;10.37;;;6.60;;
15502;SDS011;7853;52.186;5.948;2022-10-23T02:48:36;10.73;;;6.57;;
15502;SDS011;7853;52.186;5.948;2022-10-23T02:49:36;9.65;;;6.57;;
15502;SDS011;7853;52.186;5.948;2022-10-23T02:50:32;9.51;;;6.68;;
15502;SDS011;7853;52.186;5.948;2022-10-23T02:51:31;9.63;;;6.98;;
15502;SDS011;7853;52.186;5.948;2022-10-23T02:52:33;12.99;;;6.92;;
15502;SDS011;7853;52.186;5.948;2022-10-23T02:53:38;9.43;;;6.88;;
15502;SDS011;7853;52.186;5.948;2022-10-23T02:54:46;9.06;;;6.26;;
15502;SDS011;7853;52.186;5.948;2022-10-23T02:55:51;10.39;;;6.58;;
15502;SDS011;7853;52.186;5.948;2022-10-23T02:56:56;9.69;;;6.80;;
15502;SDS011;7853;52.186;5.948;2022-10-23T02:57:55;9.36;;;6.68;;
15502;SDS011;7853;52.186;5.948;2022-10-23T02:58:55;11.15;;;6.62;;
15502;SDS011;7853;52.186;5.948;2022-10-23T02:59:41;9.28;;;6.41;;
15502;SDS011;7853;52.186;5.948;2022-10-23T03:00:34;10.26;;;7.00;;
15502;SDS011;7853;52.186;5.948;2022-10-23T03:01:34;9.52;;;6.42;;
15502;SDS011;7853;52.186;5.948;2022-10-23T03:02:43;10.38;;;6.80;;
15502;SDS011;7853;52.186;5.948;2022-10-23T03:03:35;12.88;;;6.75;;
15502;SDS011;7853;52.186;5.948;2022-10-23T03:04:30;8.70;;;6.10;;
15502;SDS011;7853;52.186;5.948;2022-10-23T03:05:30;9.55;;;6.19;;
15502;SDS011;7853;52.186;5.948;2022-10-23T03:06:29;9.84;;;6.09;;
15502;SDS011;7853;52.186;5.948;2022-10-23T03:07:29;9.74;;;6.41;;
15502;SDS011;7853;52.186;5.948;2022-10-23T03:08:29;10.08;;;6.24;;
15502;SDS011;7853;52.186;5.948;2022-10-23T03:09:30;10.22;;;6.37;;
15502;SDS011;7853;52.186;5.948;2022-10-23T03:10:30;8.63;;;6.16;;
15502;SDS011;7853;52.186;5.948;2022-10-23T03:11:30;10.38;;;6.12;;
15502;SDS011;7853;52.186;5.948;2022-10-23T03:12:30;8.09;;;6.01;;
15502;SDS011;7853;52.186;5.948;2022-10-23T03:13:30;9.35;;;5.94;;
15502;SDS011;7853;52.186;5.948;2022-10-23T03:14:30;8.96;;;6.14;;
15502;SDS011;7853;52.186;5.948;2022-10-23T03:15:30;8.29;;;5.72;;
15502;SDS011;7853;52.186;5.948;2022-10-23T03:16:30;9.39;;;6.22;;
15502;SDS011;7853;52.186;5.948;2022-10-23T03:17:30;9.42;;;6.26;;
15502;SDS011;7853;52.186;5.948;2022-10-23T03:18:30;8.81;;;5.86;;
15502;SDS011;7853;52.186;5.948;2022-10-23T03:19:30;8.20;;;5.85;;
15502;SDS011;7853;52.186;5.948;2022-10-23T03:20:31;10.02;;;5.96;;
15502;SDS011;7853;52.186;5.948;2022-10-23T03:21:30;8.90;;;5.61;;
15502;SDS011;7853;52.186;5.948;2022-10-23T03:22:30;8.09;;;5.61;;
15502;SDS011;7853;52.186;5.948;2022-10-23T03:23:31;8.12;;;5.66;;
15502;SDS011;7853;52.186;5.948;2022-10-23T03:24:31;9.06;;;5.83;;
15502;SDS011;7853;52.186;5.948;2022-10-23T03:25:31;8.70;;;5.80;;
15502;SDS011;7853;52.186;5.948;2022-10-23T03:26:31;7.93;;;5.55;;
15502;SDS011;7853;52.186;5.948;2022-10-23T03:27:31;8.68;;;5.80;;
15502;SDS011;7853;52.186;5.948;2022-10-23T03:28:31;7.39;;;5.50;;
15502;SDS011;7853;52.186;5.948;2022-10-23T03:29:31;7.57;;;5.57;;
15502;SDS011;7853;52.186;5.948;2022-10-23T03:30:31;7.52;;;5.46;;
15502;SDS011;7853;52.186;5.948;2022-10-23T03:31:31;8.47;;;5.21;;
15502;SDS011;7853;52.186;5.948;2022-10-23T03:32:31;8.26;;;5.62;;
15502;SDS011;7853;52.186;5.948;2022-10-23T03:33:31;8.98;;;5.58;;
15502;SDS011;7853;52.186;5.948;2022-10-23T03:34:31;10.27;;;5.79;;
15502;SDS011;7853;52.186;5.948;2022-10-23T03:35:31;9.26;;;5.74;;
15502;SDS011;7853;52.186;5.948;2022-10-23T03:36:31;8.49;;;5.56;;
15502;SDS011;7853;52.186;5.948;2022-10-23T03:37:32;8.81;;;5.65;;
15502;SDS011;7853;52.186;5.948;2022-10-23T03:38:32;9.61;;;5.70;;
15502;SDS011;7853;52.186;5.948;2022-10-23T03:39:32;8.51;;;5.43;;
15502;SDS011;7853;52.186;5.948;2022-10-23T03:40:32;9.02;;;5.63;;
15502;SDS011;7853;52.186;5.948;2022-10-23T03:41:32;9.75;;;6.05;;
15502;SDS011;7853;52.186;5.948;2022-10-23T03:42:32;8.20;;;5.59;;
15502;SDS011;7853;52.186;5.948;2022-10-23T03:43:32;8.35;;;5.52;;
15502;SDS011;7853;52.186;5.948;2022-10-23T03:44:32;8.15;;;5.55;;
15502;SDS011;7853;52.186;5.948;2022-10-23T03:45:32;8.87;;;5.26;;
15502;SDS011;7853;52.186;5.948;2022-10-23T03:46:32;7.93;;;5.33;;
15502;SDS011;7853;52.186;5.948;2022-10-23T03:47:32;8.25;;;5.23;;
15502;SDS011;7853;52.186;5.948;2022-10-23T03:48:32;7.74;;;5.46;;
15502;SDS011;7853;52.186;5.948;2022-10-23T03:49:32;9.12;;;5.75;;
15502;SDS011;7853;52.186;5.948;2022-10-23T03:50:32;10.45;;;5.69;;
15502;SDS011;7853;52.186;5.948;2022-10-23T03:51:32;8.65;;;5.33;;
15502;SDS011;7853;52.186;5.948;2022-10-23T03:52:32;8.59;;;5.32;;
15502;SDS011;7853;52.186;5.948;2022-10-23T03:53:32;9.73;;;5.59;;
15502;SDS011;7853;52.186;5.948;2022-10-23T03:54:32;9.63;;;5.23;;
15502;SDS011;7853;52.186;5.948;2022-10-23T03:55:32;9.96;;;5.51;;
15502;SDS011;7853;52.186;5.948;2022-10-23T03:56:32;10.98;;;5.48;;
15502;SDS011;7853;52.186;5.948;2022-10-23T03:57:32;8.94;;;5.35;;
15502;SDS011;7853;52.186;5.948;2022-10-23T03:58:32;8.89;;;5.57;;
15502;SDS011;7853;52.186;5.948;2022-10-23T03:59:32;8.77;;;5.44;;
15502;SDS011;7853;52.186;5.948;2022-10-23T04:00:32;8.85;;;5.46;;
15502;SDS011;7853;52.186;5.948;2022-10-23T04:01:32;7.46;;;5.17;;
15502;SDS011;7853;52.186;5.948;2022-10-23T04:02:32;8.66;;;4.97;;
15502;SDS011;7853;52.186;5.948;2022-10-23T04:03:32;7.71;;;5.25;;
15502;SDS011;7853;52.186;5.948;2022-10-23T04:04:32;9.65;;;5.28;;
15502;SDS011;7853;52.186;5.948;2022-10-23T04:05:32;7.92;;;5.02;;
15502;SDS011;7853;52.186;5.948;2022-10-23T04:06:32;9.37;;;5.42;;
15502;SDS011;7853;52.186;5.948;2022-10-23T04:07:32;7.49;;;5.18;;
15502;SDS011;7853;52.186;5.948;2022-10-23T04:08:32;8.96;;;5.12;;
15502;SDS011;7853;52.186;5.948;2022-10-23T04:09:32;8.57;;;5.80;;
15502;SDS011;7853;52.186;5.948;2022-10-23T04:10:32;8.29;;;5.13;;
15502;SDS011;7853;52.186;5.948;2022-10-23T04:11:32;7.42;;;4.90;;
15502;SDS011;7853;52.186;5.948;2022-10-23T04:12:32;7.78;;;4.94;;
15502;SDS011;7853;52.186;5.948;2022-10-23T04:13:33;7.33;;;5.21;;
15502;SDS011;7853;52.186;5.948;2022-10-23T04:14:32;8.91;;;5.22;;
15502;SDS011;7853;52.186;5.948;2022-10-23T04:15:32;10.26;;;5.26;;
15502;SDS011;7853;52.186;5.948;2022-10-23T04:16:32;8.86;;;5.37;;
15502;SDS011;7853;52.186;5.948;2022-10-23T04:17:32;7.78;;;4.72;;
15502;SDS011;7853;52.186;5.948;2022-10-23T04:18:32;6.58;;;4.74;;
15502;SDS011;7853;52.186;5.948;2022-10-23T04:19:32;7.68;;;5.07;;
15502;SDS011;7853;52.186;5.948;2022-10-23T04:20:32;8.52;;;5.20;;
15502;SDS011;7853;52.186;5.948;2022-10-23T04:21:32;7.23;;;4.94;;
15502;SDS011;7853;52.186;5.948;2022-10-23T04:22:32;7.66;;;5.15;;
15502;SDS011;7853;52.186;5.948;2022-10-23T04:23:32;7.04;;;4.91;;
15502;SDS011;7853;52.186;5.948;2022-10-23T04:24:32;8.67;;;5.03;;
15502;SDS011;7853;52.186;5.948;2022-10-23T04:25:32;8.19;;;4.77;;
15502;SDS011;7853;52.186;5.948;2022-10-23T04:26:32;7.39;;;4.81;;
15502;SDS011;7853;52.186;5.948;2022-10-23T04:27:32;7.27;;;4.91;;
15502;SDS011;7853;52.186;5.948;2022-10-23T04:28:33;7.12;;;4.72;;
15502;SDS011;7853;52.186;5.948;2022-10-23T04:29:33;7.78;;;4.79;;
15502;SDS011;7853;52.186;5.948;2022-10-23T04:30:32;7.43;;;5.22;;
15502;SDS011;7853;52.186;5.948;2022-10-23T04:31:33;8.74;;;4.99;;
15502;SDS011;7853;52.186;5.948;2022-10-23T04:32:33;7.33;;;4.73;;
15502;SDS011;7853;52.186;5.948;2022-10-23T04:33:33;8.54;;;4.89;;
15502;SDS011;7853;52.186;5.948;2022-10-23T04:34:33;6.48;;;4.86;;
15502;SDS011;7853;52.186;5.948;2022-10-23T04:35:33;6.55;;;4.87;;
15502;SDS011;7853;52.186;5.948;2022-10-23T04:36:32;7.24;;;4.70;;
15502;SDS011;7853;52.186;5.948;2022-10-23T04:37:34;6.54;;;4.56;;
15502;SDS011;7853;52.186;5.948;2022-10-23T04:38:33;6.95;;;5.23;;
15502;SDS011;7853;52.186;5.948;2022-10-23T04:39:31;6.31;;;4.75;;
15502;SDS011;7853;52.186;5.948;2022-10-23T04:40:32;8.62;;;4.87;;
15502;SDS011;7853;52.186;5.948;2022-10-23T04:41:32;6.35;;;4.51;;
15502;SDS011;7853;52.186;5.948;2022-10-23T04:42:32;8.07;;;5.32;;
15502;SDS011;7853;52.186;5.948;2022-10-23T04:43:32;6.61;;;4.56;;
15502;SDS011;7853;52.186;5.948;2022-10-23T04:44:32;6.30;;;4.55;;
15502;SDS011;7853;52.186;5.948;2022-10-23T04:45:32;6.23;;;4.54;;
15502;SDS011;7853;52.186;5.948;2022-10-23T04:46:32;6.62;;;4.88;;
15502;SDS011;7853;52.186;5.948;2022-10-23T04:47:32;8.07;;;4.70;;
15502;SDS011;7853;52.186;5.948;2022-10-23T04:48:32;6.66;;;4.94;;
15502;SDS011;7853;52.186;5.948;2022-10-23T04:49:32;7.18;;;4.79;;
15502;SDS011;7853;52.186;5.948;2022-10-23T04:50:32;8.14;;;4.98;;
15502;SDS011;7853;52.186;5.948;2022-10-23T04:51:32;7.86;;;4.98;;
15502;SDS011;7853;52.186;5.948;2022-10-23T04:52:32;6.35;;;4.98;;
15502;SDS011;7853;52.186;5.948;2022-10-23T04:53:32;7.24;;;4.81;;
15502;SDS011;7853;52.186;5.948;2022-10-23T04:54:34;7.41;;;4.66;;
15502;SDS011;7853;52.186;5.948;2022-10-23T04:55:32;6.52;;;4.75;;
15502;SDS011;7853;52.186;5.948;2022-10-23T04:56:32;6.90;;;5.02;;
15502;SDS011;7853;52.186;5.948;2022-10-23T04:57:32;7.36;;;4.76;;
15502;SDS011;7853;52.186;5.948;2022-10-23T04:58:32;7.74;;;4.79;;
15502;SDS011;7853;52.186;5.948;2022-10-23T04:59:33;7.16;;;4.68;;
15502;SDS011;7853;52.186;5.948;2022-10-23T05:00:32;7.64;;;4.66;;
15502;SDS011;7853;52.186;5.948;2022-10-23T05:01:32;7.82;;;5.05;;
15502;SDS011;7853;52.186;5.948;2022-10-23T05:02:32;8.16;;;4.98;;
15502;SDS011;7853;52.186;5.948;2022-10-23T05:03:32;8.07;;;5.37;;
15502;SDS011;7853;52.186;5.948;2022-10-23T05:04:32;7.39;;;4.63;;
15502;SDS011;7853;52.186;5.948;2022-10-23T05:05:32;6.62;;;4.52;;
15502;SDS011;7853;52.186;5.948;2022-10-23T05:06:32;7.03;;;4.52;;
15502;SDS011;7853;52.186;5.948;2022-10-23T05:07:32;8.29;;;5.04;;
15502;SDS011;7853;52.186;5.948;2022-10-23T05:08:32;6.41;;;4.67;;
15502;SDS011;7853;52.186;5.948;2022-10-23T05:09:32;6.32;;;4.74;;
15502;SDS011;7853;52.186;5.948;2022-10-23T05:10:32;6.65;;;4.73;;
15502;SDS011;7853;52.186;5.948;2022-10-23T05:11:33;7.58;;;4.95;;
15502;SDS011;7853;52.186;5.948;2022-10-23T05:12:32;7.10;;;4.70;;
15502;SDS011;7853;52.186;5.948;2022-10-23T05:13:32;6.51;;;4.56;;
15502;SDS011;7853;52.186;5.948;2022-10-23T05:14:32;9.33;;;4.64;;
15502;SDS011;7853;52.186;5.948;2022-10-23T05:15:32;5.71;;;4.44;;
15502;SDS011;7853;52.186;5.948;2022-10-23T05:16:35;6.15;;;4.57;;
15502;SDS011;7853;52.186;5.948;2022-10-23T05:17:32;8.26;;;4.98;;
15502;SDS011;7853;52.186;5.948;2022-10-23T05:18:32;9.69;;;4.97;;
15502;SDS011;7853;52.186;5.948;2022-10-23T05:19:33;6.94;;;4.55;;
15502;SDS011;7853;52.186;5.948;2022-10-23T05:20:32;6.03;;;4.51;;
15502;SDS011;7853;52.186;5.948;2022-10-23T05:21:31;7.13;;;4.63;;
15502;SDS011;7853;52.186;5.948;2022-10-23T05:22:32;7.47;;;4.80;;
15502;SDS011;7853;52.186;5.948;2022-10-23T05:23:31;6.44;;;4.89;;
15502;SDS011;7853;52.186;5.948;2022-10-23T05:24:32;6.84;;;4.73;;
15502;SDS011;7853;52.186;5.948;2022-10-23T05:25:32;8.11;;;4.60;;
15502;SDS011;7853;52.186;5.948;2022-10-23T05:26:31;8.68;;;4.83;;
15502;SDS011;7853;52.186;5.948;2022-10-23T05:27:32;7.13;;;4.49;;
15502;SDS011;7853;52.186;5.948;2022-10-23T05:28:32;7.86;;;4.78;;
15502;SDS011;7853;52.186;5.948;2022-10-23T05:29:32;6.69;;;4.67;;
15502;SDS011;7853;52.186;5.948;2022-10-23T05:30:32;6.12;;;4.57;;
15502;SDS011;7853;52.186;5.948;2022-10-23T05:31:32;7.30;;;4.77;;
15502;SDS011;7853;52.186;5.948;2022-10-23T05:32:32;7.37;;;5.00;;
15502;SDS011;7853;52.186;5.948;2022-10-23T05:33:32;9.15;;;4.47;;
15502;SDS011;7853;52.186;5.948;2022-10-23T05:34:32;6.73;;;4.67;;
15502;SDS011;7853;52.186;5.948;2022-10-23T05:35:32;7.37;;;4.99;;
15502;SDS011;7853;52.186;5.948;2022-10-23T05:36:32;7.75;;;4.72;;
15502;SDS011;7853;52.186;5.948;2022-10-23T05:37:32;6.85;;;4.49;;
15502;SDS011;7853;52.186;5.948;2022-10-23T05:38:32;7.56;;;4.77;;
15502;SDS011;7853;52.186;5.948;2022-10-23T05:39:32;7.43;;;4.81;;
15502;SDS011;7853;52.186;5.948;2022-10-23T05:40:32;7.39;;;4.94;;
15502;SDS011;7853;52.186;5.948;2022-10-23T05:41:32;7.48;;;4.56;;
15502;SDS011;7853;52.186;5.948;2022-10-23T05:42:32;6.75;;;4.53;;
15502;SDS011;7853;52.186;5.948;2022-10-23T05:43:33;8.12;;;4.71;;
15502;SDS011;7853;52.186;5.948;2022-10-23T05:44:32;8.36;;;4.68;;
15502;SDS011;7853;52.186;5.948;2022-10-23T05:45:32;7.20;;;4.62;;
15502;SDS011;7853;52.186;5.948;2022-10-23T05:46:32;7.55;;;4.88;;
15502;SDS011;7853;52.186;5.948;2022-10-23T05:47:33;6.94;;;4.51;;
15502;SDS011;7853;52.186;5.948;2022-10-23T05:48:32;6.84;;;4.49;;
15502;SDS011;7853;52.186;5.948;2022-10-23T05:49:32;8.10;;;4.47;;
15502;SDS011;7853;52.186;5.948;2022-10-23T05:50:34;7.28;;;4.69;;
15502;SDS011;7853;52.186;5.948;2022-10-23T05:51:31;6.51;;;4.49;;
15502;SDS011;7853;52.186;5.948;2022-10-23T05:52:30;7.45;;;4.58;;
15502;SDS011;7853;52.186;5.948;2022-10-23T05:53:32;7.77;;;4.82;;
15502;SDS011;7853;52.186;5.948;2022-10-23T05:54:32;7.05;;;4.49;;
15502;SDS011;7853;52.186;5.948;2022-10-23T05:55:32;7.55;;;4.33;;
15502;SDS011;7853;52.186;5.948;2022-10-23T05:56:32;7.75;;;4.37;;
15502;SDS011;7853;52.186;5.948;2022-10-23T05:57:32;8.02;;;4.25;;
15502;SDS011;7853;52.186;5.948;2022-10-23T05:58:33;8.81;;;4.77;;
15502;SDS011;7853;52.186;5.948;2022-10-23T05:59:32;7.73;;;4.61;;
15502;SDS011;7853;52.186;5.948;2022-10-23T06:00:32;7.54;;;4.39;;
15502;SDS011;7853;52.186;5.948;2022-10-23T06:01:33;9.10;;;4.55;;
15502;SDS011;7853;52.186;5.948;2022-10-23T06:02:33;9.41;;;4.03;;
15502;SDS011;7853;52.186;5.948;2022-10-23T06:04:33;7.53;;;4.09;;
15502;SDS011;7853;52.186;5.948;2022-10-23T06:05:33;6.54;;;4.29;;
15502;SDS011;7853;52.186;5.948;2022-10-23T06:06:33;5.88;;;4.02;;
15502;SDS011;7853;52.186;5.948;2022-10-23T06:07:33;6.41;;;4.27;;
15502;SDS011;7853;52.186;5.948;2022-10-23T06:08:33;5.99;;;4.12;;
15502;SDS011;7853;52.186;5.948;2022-10-23T06:09:32;6.53;;;4.24;;
15502;SDS011;7853;52.186;5.948;2022-10-23T06:10:32;7.55;;;3.89;;
15502;SDS011;7853;52.186;5.948;2022-10-23T06:11:32;7.03;;;3.94;;